Metar GG30 METAR message from awiacja.imgw.pl Metar G30 EPPO METAR EPPO 240430Z 10009KT 0500 R28/1500 FG VV002 12/12 Q1014 =